createdAt,value
2018-09-13T00:00:46.609Z,16.07
2018-09-13T00:05:50.283Z,15.90
2018-09-13T00:10:53.835Z,15.70
2018-09-13T00:15:57.377Z,15.77
2018-09-13T00:21:00.911Z,16.33
2018-09-13T00:26:05.513Z,17.00
2018-09-13T00:31:09.071Z,15.87
2018-09-13T00:36:12.862Z,15.87
2018-09-13T00:41:16.400Z,16.63
2018-09-13T00:46:19.934Z,16.80
2018-09-13T00:51:23.496Z,16.33
2018-09-13T00:56:27.112Z,16.57
2018-09-13T01:01:30.669Z,16.93
2018-09-13T01:06:34.359Z,16.70
2018-09-13T01:11:38.055Z,16.63
2018-09-13T01:16:41.663Z,17.17
2018-09-13T01:21:45.284Z,16.07
2018-09-13T01:26:48.843Z,16.77
2018-09-13T01:31:52.372Z,16.47
2018-09-13T01:36:55.938Z,16.97
2018-09-13T01:41:59.558Z,16.63
2018-09-13T01:47:03.126Z,17.37
2018-09-13T01:52:08.869Z,15.70
2018-09-13T01:57:12.509Z,16.70
2018-09-13T02:02:16.158Z,16.47
2018-09-13T02:07:19.873Z,16.07
2018-09-13T02:12:23.436Z,16.83
2018-09-13T02:17:27.069Z,17.50
2018-09-13T02:22:31.061Z,16.77
2018-09-13T02:27:34.691Z,17.30
2018-09-13T02:32:38.418Z,15.90
2018-09-13T02:37:42.057Z,16.30
2018-09-13T02:42:45.674Z,16.27
2018-09-13T02:47:49.276Z,16.67
2018-09-13T02:52:52.857Z,17.03
2018-09-13T02:57:56.413Z,17.47
2018-09-13T03:03:00.712Z,16.03
2018-09-13T03:08:04.573Z,17.77
2018-09-13T03:13:08.979Z,18.63
2018-09-13T03:18:12.625Z,16.00
2018-09-13T03:23:16.202Z,16.67
2018-09-13T03:28:19.830Z,17.93
2018-09-13T03:33:23.588Z,16.77
2018-09-13T03:38:28.343Z,17.13
2018-09-13T03:43:31.926Z,16.60
2018-09-13T03:48:35.576Z,16.43
2018-09-13T03:53:39.214Z,17.07
2018-09-13T03:58:42.826Z,18.60
2018-09-13T04:03:46.484Z,16.40
2018-09-13T04:08:50.114Z,16.50
2018-09-13T04:13:53.848Z,16.73
2018-09-13T04:18:58.509Z,17.13
2018-09-13T04:24:02.211Z,16.60
2018-09-13T04:29:05.873Z,16.50
2018-09-13T04:34:09.394Z,16.23
2018-09-13T04:39:12.949Z,16.07
2018-09-13T04:44:17.524Z,16.83
2018-09-13T04:49:21.129Z,16.97
2018-09-13T04:54:25.743Z,17.17
2018-09-13T04:59:29.267Z,15.43
2018-09-13T05:04:33.026Z,16.30
2018-09-13T05:09:36.754Z,16.30
2018-09-13T05:14:40.299Z,15.53
2018-09-13T05:19:43.927Z,17.37
2018-09-13T05:24:47.487Z,15.10
2018-09-13T05:29:51.113Z,16.13
2018-09-13T05:34:54.738Z,19.03
2018-09-13T05:39:58.381Z,18.87
2018-09-13T05:45:02.015Z,18.27
2018-09-13T05:50:06.450Z,17.37
2018-09-13T05:55:10.075Z,17.40
2018-09-13T06:00:13.820Z,17.47
2018-09-13T06:05:17.659Z,17.80
2018-09-13T06:10:21.472Z,17.03
2018-09-13T06:15:25.018Z,16.40
2018-09-13T06:20:28.650Z,17.60
2018-09-13T06:25:32.214Z,18.20
2018-09-13T06:30:35.783Z,17.23
2018-09-13T06:35:39.503Z,19.93
2018-09-13T06:40:43.054Z,18.43
2018-09-13T06:45:46.602Z,17.37
2018-09-13T06:50:50.262Z,16.63
2018-09-13T06:55:53.810Z,17.60
2018-09-13T07:00:57.487Z,17.80
2018-09-13T07:06:01.167Z,16.87
2018-09-13T07:11:04.976Z,16.80
2018-09-13T07:16:08.584Z,17.13
2018-09-13T07:21:12.165Z,15.90
2018-09-13T07:26:15.734Z,17.40
2018-09-13T07:31:19.290Z,16.63
2018-09-13T07:36:23.214Z,17.83
2018-09-13T07:41:26.774Z,16.70
2018-09-13T07:46:30.530Z,17.20
2018-09-13T07:51:34.207Z,17.13
2018-09-13T07:56:37.874Z,16.37
2018-09-13T08:01:42.478Z,15.90
2018-09-13T08:06:46.130Z,15.97
2018-09-13T08:11:49.814Z,14.90
2018-09-13T08:16:54.450Z,15.30
2018-09-13T08:21:58.125Z,15.63
2018-09-13T08:27:01.819Z,16.07
2018-09-13T08:32:05.355Z,14.57
2018-09-13T08:37:09.098Z,14.17
2018-09-13T08:42:12.740Z,15.00
2018-09-13T08:47:18.554Z,15.13
2018-09-13T08:52:24.168Z,16.00
2018-09-13T08:57:27.938Z,14.30
2018-09-13T09:02:32.283Z,13.93
2018-09-13T09:07:36.647Z,15.93
2018-09-13T09:12:40.354Z,13.70
2018-09-13T09:17:43.919Z,15.23
2018-09-13T09:22:47.541Z,14.20
2018-09-13T09:27:51.178Z,14.77
2018-09-13T09:32:54.822Z,13.50
2018-09-13T09:37:59.545Z,14.17
2018-09-13T09:43:03.102Z,12.83
2018-09-13T09:48:06.887Z,13.50
2018-09-13T09:53:11.895Z,12.40
2018-09-13T09:58:17.576Z,11.87
2018-09-13T10:03:21.204Z,13.87
2018-09-13T10:08:24.754Z,12.73
2018-09-13T10:13:28.382Z,14.70
2018-09-13T10:18:37.294Z,13.63
2018-09-13T10:23:52.587Z,10.93
2018-09-13T10:29:03.368Z,11.47
2018-09-13T10:34:18.891Z,13.00
2018-09-13T10:39:29.730Z,12.40
2018-09-13T10:44:40.839Z,13.00
2018-09-13T10:49:50.333Z,13.30
2018-09-13T10:54:53.966Z,11.20
2018-09-13T10:59:57.555Z,11.83
2018-09-13T11:05:01.122Z,10.07
2018-09-13T11:10:04.830Z,10.33
2018-09-13T11:15:41.717Z,10.63
2018-09-13T11:20:45.320Z,9.10
2018-09-13T11:25:48.905Z,8.37
2018-09-13T11:30:57.712Z,8.33
2018-09-13T11:36:01.282Z,8.33
2018-09-13T11:41:05.028Z,8.07
2018-09-13T11:46:08.390Z,8.33
2018-09-13T11:51:12.032Z,7.37
2018-09-13T11:56:15.574Z,7.63
2018-09-13T12:01:19.305Z,7.20
2018-09-13T12:06:22.906Z,6.77
2018-09-13T12:11:26.497Z,7.60
2018-09-13T12:16:30.205Z,7.27
2018-09-13T12:21:33.791Z,8.53
2018-09-13T12:26:37.351Z,9.07
2018-09-13T12:31:40.917Z,7.80
2018-09-13T12:36:45.601Z,8.43
2018-09-13T12:41:49.246Z,9.87
2018-09-13T12:46:52.797Z,9.30
2018-09-13T12:51:56.422Z,8.40
2018-09-13T12:57:00.017Z,8.53
2018-09-13T13:02:03.609Z,8.57
2018-09-13T13:07:07.272Z,9.20
2018-09-13T13:12:14.839Z,8.43
2018-09-13T13:17:18.552Z,8.70
2018-09-13T13:22:25.894Z,7.00
2018-09-13T13:27:29.572Z,9.33
2018-09-13T13:32:33.719Z,9.93
2018-09-13T13:37:37.886Z,9.63
2018-09-13T13:42:46.154Z,9.60
2018-09-13T13:47:49.921Z,11.40
2018-09-13T13:53:01.991Z,11.47
2018-09-13T13:58:05.624Z,11.47
2018-09-13T14:03:12.806Z,11.67
2018-09-13T14:08:17.538Z,12.73
2018-09-13T14:13:21.290Z,12.90
2018-09-13T14:18:25.205Z,12.43
2018-09-13T14:23:43.191Z,13.23
2018-09-13T14:28:46.862Z,14.73
2018-09-13T14:33:50.650Z,13.40
2018-09-13T14:38:54.421Z,14.20
2018-09-13T14:43:58.150Z,11.33
2018-09-13T14:49:01.814Z,13.10
2018-09-13T14:54:05.876Z,12.57
2018-09-13T14:59:14.054Z,13.67
2018-09-13T15:04:31.092Z,12.20
2018-09-13T15:09:45.472Z,12.43
2018-09-13T15:14:49.139Z,10.90
2018-09-13T15:19:53.861Z,9.03
2018-09-13T15:24:57.676Z,7.77
2018-09-13T15:30:04.105Z,7.83
2018-09-13T15:35:08.805Z,9.60
2018-09-13T15:40:15.141Z,7.57
2018-09-13T15:45:19.049Z,6.33
2018-09-13T15:50:22.654Z,6.13
2018-09-13T15:55:29.979Z,5.93
2018-09-13T16:00:33.818Z,5.37
2018-09-13T16:05:47.850Z,5.43
2018-09-13T16:10:55.139Z,5.70
2018-09-13T16:15:58.697Z,5.63
2018-09-13T16:21:02.409Z,4.07
2018-09-13T16:26:12.840Z,5.00
2018-09-13T16:31:16.429Z,4.60
2018-09-13T16:36:28.010Z,4.30
2018-09-13T16:41:41.059Z,4.03
2018-09-13T16:46:51.147Z,4.93
2018-09-13T16:51:55.151Z,4.27
2018-09-13T16:56:59.794Z,4.00
2018-09-13T17:02:03.460Z,3.07
2018-09-13T17:07:07.655Z,3.00
2018-09-13T17:12:13.770Z,2.37
2018-09-13T17:17:19.543Z,2.23
2018-09-13T17:22:27.318Z,2.10
2018-09-13T17:27:31.084Z,2.03
2018-09-13T17:32:34.927Z,2.07
2018-09-13T17:37:38.897Z,1.67
2018-09-13T17:42:43.590Z,1.80
2018-09-13T17:47:52.504Z,1.83
2018-09-13T17:52:56.893Z,1.60
2018-09-13T17:58:08.851Z,1.87
2018-09-13T18:03:16.530Z,1.50
2018-09-13T18:08:22.238Z,1.80
2018-09-13T18:13:27.207Z,2.13
2018-09-13T18:18:30.857Z,2.50
2018-09-13T18:23:35.712Z,2.30
2018-09-13T18:28:41.015Z,3.00
2018-09-13T18:33:45.006Z,2.13
2018-09-13T18:38:49.875Z,2.73
2018-09-13T18:43:53.706Z,2.30
2018-09-13T18:48:57.807Z,3.10
2018-09-13T18:54:02.786Z,3.00
2018-09-13T18:59:06.446Z,2.80
2018-09-13T19:04:13.275Z,2.80
2018-09-13T19:09:17.112Z,2.40
2018-09-13T19:14:23.804Z,3.00
2018-09-13T19:19:27.752Z,2.70
2018-09-13T19:24:32.977Z,3.20
2018-09-13T19:29:37.039Z,3.30
2018-09-13T19:34:44.318Z,3.37
2018-09-13T19:40:00.697Z,3.00
2018-09-13T19:45:06.745Z,3.40
2018-09-13T19:50:10.646Z,2.90
2018-09-13T19:55:19.100Z,3.23
2018-09-13T20:00:26.231Z,2.97
2018-09-13T20:05:30.278Z,2.80
2018-09-13T20:10:35.357Z,2.70
2018-09-13T20:15:41.502Z,2.80
2018-09-13T20:20:48.225Z,3.37
2018-09-13T20:25:56.158Z,3.53
2018-09-13T20:31:10.890Z,3.30
2018-09-13T20:36:16.553Z,3.13
2018-09-13T20:41:27.267Z,3.20
2018-09-13T20:46:33.866Z,3.33
2018-09-13T20:51:37.509Z,3.53
2018-09-13T20:56:47.004Z,3.20
2018-09-13T21:01:50.711Z,3.20
2018-09-13T21:06:55.606Z,3.10
2018-09-13T21:11:59.154Z,3.27
2018-09-13T21:17:02.771Z,3.70
2018-09-13T21:22:06.422Z,3.33
2018-09-13T21:27:11.102Z,3.97
2018-09-13T21:32:14.693Z,3.83
2018-09-13T21:37:19.299Z,3.80
2018-09-13T21:42:25.018Z,4.20
2018-09-13T21:47:28.574Z,3.93
2018-09-13T21:52:32.847Z,4.53
2018-09-13T21:57:36.409Z,4.63
2018-09-13T22:02:40.223Z,4.87
2018-09-13T22:07:43.802Z,5.13
2018-09-13T22:12:47.359Z,4.70
2018-09-13T22:17:52.146Z,5.57
2018-09-13T22:22:55.781Z,4.90
2018-09-13T22:27:59.519Z,5.00
2018-09-13T22:33:03.223Z,5.23
2018-09-13T22:38:06.814Z,5.77
2018-09-13T22:43:10.330Z,5.10
2018-09-13T22:48:13.889Z,4.60
2018-09-13T22:53:21.067Z,5.07
2018-09-13T22:58:24.623Z,5.13
2018-09-13T23:03:28.442Z,4.97
2018-09-13T23:08:33.050Z,4.90
2018-09-13T23:13:36.570Z,4.50
2018-09-13T23:18:40.125Z,4.50
2018-09-13T23:23:44.687Z,5.27
2018-09-13T23:28:51.641Z,5.40
2018-09-13T23:33:55.447Z,5.27
2018-09-13T23:38:59.137Z,5.27
2018-09-13T23:44:02.692Z,5.63
2018-09-13T23:49:06.142Z,6.30
2018-09-13T23:54:09.417Z,5.40
2018-09-13T23:59:13.005Z,4.80
